createdAt,value
2018-06-24T00:02:21.074Z,13.45
2018-06-24T00:04:50.203Z,13.45
2018-06-24T00:07:20.093Z,13.34
2018-06-24T00:09:48.996Z,13.40
2018-06-24T00:12:18.500Z,13.34
2018-06-24T00:14:48.512Z,13.34
2018-06-24T00:17:18.024Z,13.33
2018-06-24T00:19:47.726Z,13.36
2018-06-24T00:22:17.993Z,13.42
2018-06-24T00:24:47.187Z,13.35
2018-06-24T00:27:17.139Z,13.38
2018-06-24T00:29:47.083Z,13.41
2018-06-24T00:32:16.597Z,13.21
2018-06-24T00:34:45.495Z,13.25
2018-06-24T00:37:14.454Z,13.11
2018-06-24T00:39:43.186Z,13.06
2018-06-24T00:42:12.106Z,13.02
2018-06-24T00:44:42.978Z,13.00
2018-06-24T00:47:11.560Z,12.95
2018-06-24T00:49:40.747Z,12.89
2018-06-24T00:52:09.986Z,12.85
2018-06-24T00:54:38.645Z,12.71
2018-06-24T00:57:07.558Z,12.72
2018-06-24T00:59:47.356Z,12.73
2018-06-24T01:02:16.978Z,12.69
2018-06-24T01:04:46.238Z,12.77
2018-06-24T01:07:15.513Z,12.89
2018-06-24T01:09:45.033Z,12.93
2018-06-24T01:12:14.911Z,12.93
2018-06-24T01:14:43.949Z,12.97
2018-06-24T01:17:13.351Z,12.98
2018-06-24T01:19:44.146Z,13.01
2018-06-24T01:22:13.684Z,12.99
2018-06-24T01:24:43.594Z,12.95
2018-06-24T01:27:12.266Z,12.92
2018-06-24T01:29:40.977Z,12.96
2018-06-24T01:32:09.642Z,12.87
2018-06-24T01:34:40.752Z,12.90
2018-06-24T01:37:10.749Z,12.89
2018-06-24T01:39:39.826Z,12.90
2018-06-24T01:42:09.816Z,12.91
2018-06-24T01:44:39.731Z,12.93
2018-06-24T01:47:09.522Z,12.94
2018-06-24T01:49:38.166Z,12.94
2018-06-24T01:52:07.414Z,12.96
2018-06-24T01:54:36.809Z,12.87
2018-06-24T01:57:06.941Z,12.91
2018-06-24T01:59:38.082Z,12.95
2018-06-24T02:02:07.991Z,12.98
2018-06-24T02:04:36.774Z,13.01
2018-06-24T02:07:06.686Z,12.90
2018-06-24T02:09:36.220Z,13.01
2018-06-24T02:12:04.783Z,13.06
2018-06-24T02:14:33.959Z,13.09
2018-06-24T02:17:04.078Z,13.07
2018-06-24T02:19:33.933Z,13.06
2018-06-24T02:22:03.449Z,13.12
2018-06-24T02:24:33.686Z,13.14
2018-06-24T02:27:03.577Z,13.12
2018-06-24T02:29:32.195Z,13.13
2018-06-24T02:32:01.582Z,13.16
2018-06-24T02:34:31.432Z,13.20
2018-06-24T02:37:00.931Z,13.14
2018-06-24T02:39:30.233Z,13.18
2018-06-24T02:41:59.534Z,13.12
2018-06-24T02:44:28.321Z,13.10
2018-06-24T02:46:59.421Z,13.12
2018-06-24T02:49:28.199Z,13.05
2018-06-24T02:51:57.381Z,13.06
2018-06-24T02:54:26.856Z,13.01
2018-06-24T02:56:56.049Z,12.93
2018-06-24T02:59:25.591Z,12.94
2018-06-24T03:01:54.504Z,12.94
2018-06-24T03:04:23.563Z,12.89
2018-06-24T03:06:52.167Z,12.93
2018-06-24T03:09:20.796Z,13.00
2018-06-24T03:11:49.356Z,12.95
2018-06-24T03:14:17.950Z,12.98
2018-06-24T03:16:47.205Z,12.92
2018-06-24T03:19:16.388Z,12.90
2018-06-24T03:21:45.045Z,12.94
2018-06-24T03:24:13.681Z,12.99
2018-06-24T03:26:42.557Z,13.04
2018-06-24T03:29:11.191Z,13.03
2018-06-24T03:31:40.557Z,13.09
2018-06-24T03:34:09.658Z,13.07
2018-06-24T03:36:38.264Z,13.05
2018-06-24T03:39:09.753Z,13.10
2018-06-24T03:41:38.378Z,13.13
2018-06-24T03:44:07.409Z,13.17
2018-06-24T03:46:36.255Z,13.12
2018-06-24T03:49:04.900Z,13.11
2018-06-24T03:51:33.505Z,13.06
2018-06-24T03:54:02.131Z,13.06
2018-06-24T03:56:31.138Z,13.08
2018-06-24T03:59:00.091Z,13.11
2018-06-24T04:01:28.966Z,13.16
2018-06-24T04:03:58.374Z,13.21
2018-06-24T04:06:27.000Z,13.24
2018-06-24T04:08:55.578Z,13.18
2018-06-24T04:11:24.578Z,13.17
2018-06-24T04:13:53.199Z,13.21
2018-06-24T04:16:22.068Z,13.25
2018-06-24T04:18:50.974Z,13.21
2018-06-24T04:21:19.588Z,13.20
2018-06-24T04:23:48.505Z,13.30
2018-06-24T04:26:17.108Z,13.30
2018-06-24T04:28:45.966Z,13.36
2018-06-24T04:31:14.569Z,13.37
2018-06-24T04:33:43.162Z,13.38
2018-06-24T04:36:12.041Z,13.41
2018-06-24T04:38:40.948Z,13.40
2018-06-24T04:41:11.465Z,13.37
2018-06-24T04:43:40.102Z,13.40
2018-06-24T04:46:09.305Z,13.40
2018-06-24T04:48:39.577Z,13.40
2018-06-24T04:51:09.381Z,13.45
2018-06-24T04:53:37.962Z,13.45
2018-06-24T04:56:06.883Z,13.42
2018-06-24T04:58:35.487Z,13.48
2018-06-24T05:01:04.149Z,13.47
2018-06-24T05:03:32.793Z,13.45
2018-06-24T05:06:01.414Z,13.43
2018-06-24T05:08:30.028Z,13.38
2018-06-24T05:10:58.720Z,13.41
2018-06-24T05:13:27.606Z,13.42
2018-06-24T05:15:56.252Z,13.40
2018-06-24T05:18:25.211Z,13.41
2018-06-24T05:20:54.050Z,13.23
2018-06-24T05:23:23.409Z,13.23
2018-06-24T05:25:52.638Z,13.13
2018-06-24T05:28:21.902Z,13.16
2018-06-24T05:30:50.846Z,13.21
2018-06-24T05:33:19.509Z,13.24
2018-06-24T05:35:48.481Z,13.13
2018-06-24T05:38:17.089Z,13.19
2018-06-24T05:40:45.964Z,13.10
2018-06-24T05:43:15.542Z,13.12
2018-06-24T05:45:44.134Z,13.20
2018-06-24T05:48:14.277Z,13.25
2018-06-24T05:50:44.398Z,13.29
2018-06-24T05:53:14.469Z,13.34
2018-06-24T05:55:43.421Z,13.38
2018-06-24T05:58:15.126Z,13.43
2018-06-24T06:00:46.005Z,13.47
2018-06-24T06:03:16.694Z,13.55
2018-06-24T06:05:45.530Z,13.59
2018-06-24T06:08:14.328Z,13.67
2018-06-24T06:10:45.518Z,13.70
2018-06-24T06:13:14.735Z,13.56
2018-06-24T06:15:43.908Z,13.62
2018-06-24T06:18:12.607Z,13.42
2018-06-24T06:20:41.306Z,13.35
2018-06-24T06:23:09.965Z,13.38
2018-06-24T06:25:38.553Z,13.48
2018-06-24T06:28:07.222Z,13.47
2018-06-24T06:30:35.801Z,13.53
2018-06-24T06:33:06.385Z,13.49
2018-06-24T06:35:35.122Z,13.52
2018-06-24T06:38:06.111Z,13.53
2018-06-24T06:40:36.010Z,13.62
2018-06-24T06:43:05.405Z,13.69
2018-06-24T06:45:35.161Z,13.54
2018-06-24T06:48:03.743Z,13.65
2018-06-24T06:50:33.004Z,13.74
2018-06-24T06:53:01.670Z,13.79
2018-06-24T06:55:30.291Z,13.82
2018-06-24T06:57:58.873Z,13.75
2018-06-24T07:00:27.478Z,13.85
2018-06-24T07:02:56.185Z,13.88
2018-06-24T07:05:25.167Z,13.90
2018-06-24T07:07:53.766Z,13.78
2018-06-24T07:10:23.344Z,13.91
2018-06-24T07:12:52.523Z,13.96
2018-06-24T07:15:21.950Z,13.91
2018-06-24T07:17:50.546Z,13.94
2018-06-24T07:20:19.340Z,13.81
2018-06-24T07:22:48.128Z,13.71
2018-06-24T07:25:16.813Z,13.71
2018-06-24T07:27:45.597Z,13.81
2018-06-24T07:30:14.549Z,13.79
2018-06-24T07:32:43.804Z,13.74
2018-06-24T07:35:12.869Z,13.62
2018-06-24T07:37:41.640Z,13.72
2018-06-24T07:40:10.852Z,13.51
2018-06-24T07:42:39.674Z,13.50
2018-06-24T07:45:08.388Z,13.53
2018-06-24T07:47:37.423Z,13.50
2018-06-24T07:50:06.105Z,13.47
2018-06-24T07:52:34.730Z,13.44
2018-06-24T07:55:03.522Z,13.45
2018-06-24T07:57:32.215Z,13.39
2018-06-24T08:00:01.001Z,13.42
2018-06-24T08:02:30.042Z,13.34
2018-06-24T08:04:59.115Z,13.40
2018-06-24T08:07:27.787Z,13.41
2018-06-24T08:09:56.409Z,13.48
2018-06-24T08:12:25.777Z,13.50
2018-06-24T08:14:55.538Z,13.58
2018-06-24T08:17:24.938Z,13.64
2018-06-24T08:19:54.049Z,13.29
2018-06-24T08:22:22.698Z,13.28
2018-06-24T08:24:51.313Z,13.35
2018-06-24T08:27:20.610Z,13.30
2018-06-24T08:29:49.607Z,13.34
2018-06-24T08:32:18.251Z,13.41
2018-06-24T08:34:47.180Z,13.43
2018-06-24T08:37:16.104Z,13.48
2018-06-24T08:39:45.021Z,13.53
2018-06-24T08:42:13.614Z,13.66
2018-06-24T08:44:42.348Z,13.74
2018-06-24T08:47:11.005Z,13.85
2018-06-24T08:49:40.322Z,13.85
2018-06-24T08:52:10.086Z,13.61
2018-06-24T08:54:39.144Z,13.65
2018-06-24T08:57:09.028Z,13.71
2018-06-24T08:59:39.773Z,13.83
2018-06-24T09:02:08.448Z,13.72
2018-06-24T09:04:37.066Z,13.92
2018-06-24T09:07:05.990Z,14.00
2018-06-24T09:09:34.724Z,13.77
2018-06-24T09:12:03.684Z,13.92
2018-06-24T09:14:32.643Z,13.80
2018-06-24T09:17:01.723Z,13.69
2018-06-24T09:19:30.952Z,14.00
2018-06-24T09:21:59.872Z,14.15
2018-06-24T09:24:28.845Z,14.41
2018-06-24T09:26:58.599Z,14.21
2018-06-24T09:29:28.128Z,13.72
2018-06-24T09:31:57.066Z,13.79
2018-06-24T09:34:26.134Z,13.88
2018-06-24T09:36:54.794Z,14.14
2018-06-24T09:39:23.647Z,14.45
2018-06-24T09:41:52.800Z,14.37
2018-06-24T09:44:22.149Z,14.37
2018-06-24T09:46:50.741Z,14.50
2018-06-24T09:49:19.475Z,14.64
2018-06-24T09:51:49.287Z,14.43
2018-06-24T09:54:17.901Z,14.22
2018-06-24T09:56:46.830Z,14.02
2018-06-24T09:59:15.740Z,13.94
2018-06-24T10:01:44.400Z,13.96
2018-06-24T10:04:13.200Z,14.19
2018-06-24T10:06:41.868Z,14.62
2018-06-24T10:09:11.582Z,14.74
2018-06-24T10:11:40.972Z,14.89
2018-06-24T10:14:09.909Z,14.92
2018-06-24T10:16:38.536Z,14.73
2018-06-24T10:19:07.215Z,14.51
2018-06-24T10:21:35.825Z,14.46
2018-06-24T10:24:04.453Z,14.66
2018-06-24T10:26:33.065Z,14.74
2018-06-24T10:29:02.003Z,14.81
2018-06-24T10:31:30.677Z,14.42
2018-06-24T10:33:59.380Z,14.21
2018-06-24T10:36:28.274Z,14.15
2018-06-24T10:38:57.350Z,14.06
2018-06-24T10:41:26.973Z,14.18
2018-06-24T10:43:56.504Z,14.48
2018-06-24T10:46:26.376Z,14.87
2018-06-24T10:48:54.989Z,15.15
2018-06-24T10:51:23.634Z,15.36
2018-06-24T10:53:52.372Z,15.15
2018-06-24T10:56:22.617Z,15.28
2018-06-24T10:58:52.275Z,15.08
2018-06-24T11:01:20.946Z,14.88
2018-06-24T11:03:50.102Z,14.68
2018-06-24T11:06:18.783Z,14.74
2018-06-24T11:08:47.401Z,15.01
2018-06-24T11:11:17.434Z,15.32
2018-06-24T11:13:46.912Z,15.13
2018-06-24T11:16:15.838Z,15.27
2018-06-24T11:18:44.797Z,15.29
2018-06-24T11:21:14.383Z,15.41
2018-06-24T11:23:42.490Z,15.49
2018-06-24T11:26:11.421Z,15.48
2018-06-24T11:28:40.160Z,15.56
2018-06-24T11:31:09.427Z,15.75
2018-06-24T11:33:38.397Z,15.95
2018-06-24T11:36:07.352Z,15.89
2018-06-24T11:38:36.789Z,16.19
2018-06-24T11:41:12.043Z,16.28
2018-06-24T11:43:40.649Z,16.43
2018-06-24T11:46:09.346Z,16.45
2018-06-24T11:48:38.019Z,16.25
2018-06-24T11:51:06.682Z,15.83
2018-06-24T11:53:35.591Z,15.80
2018-06-24T11:56:04.578Z,15.51
2018-06-24T11:58:33.594Z,15.60
2018-06-24T12:01:02.691Z,15.94
2018-06-24T12:03:31.729Z,16.13
2018-06-24T12:06:00.602Z,15.77
2018-06-24T12:08:29.180Z,15.63
2018-06-24T12:10:58.069Z,15.62
2018-06-24T12:13:26.965Z,15.75
2018-06-24T12:15:55.657Z,15.94
2018-06-24T12:18:24.492Z,16.06
2018-06-24T12:20:53.446Z,16.16
2018-06-24T12:23:22.296Z,16.10
2018-06-24T12:25:50.980Z,16.11
2018-06-24T12:28:19.606Z,15.75
2018-06-24T12:30:48.882Z,15.73
2018-06-24T12:33:17.945Z,15.71
2018-06-24T12:35:46.906Z,15.69
2018-06-24T12:38:16.145Z,15.56
2018-06-24T12:40:44.804Z,15.56
2018-06-24T12:43:13.604Z,15.28
2018-06-24T12:45:42.552Z,15.23
2018-06-24T12:48:11.737Z,15.34
2018-06-24T12:50:40.389Z,15.40
2018-06-24T12:53:09.008Z,15.46
2018-06-24T12:55:38.657Z,15.60
2018-06-24T12:58:07.333Z,15.57
2018-06-24T13:00:36.628Z,15.77
2018-06-24T13:03:04.647Z,15.90
2018-06-24T13:05:33.404Z,16.06
2018-06-24T13:08:02.289Z,16.31
2018-06-24T13:10:30.948Z,16.16
2018-06-24T13:12:59.853Z,16.49
2018-06-24T13:15:28.464Z,16.81
2018-06-24T13:17:57.070Z,17.02
2018-06-24T13:20:25.695Z,17.23
2018-06-24T13:22:54.345Z,17.33
2018-06-24T13:25:23.047Z,17.18
2018-06-24T13:27:52.085Z,16.81
2018-06-24T13:30:20.770Z,16.48
2018-06-24T13:32:49.452Z,16.50
2018-06-24T13:35:18.780Z,16.42
2018-06-24T13:37:47.485Z,16.28
2018-06-24T13:40:16.149Z,16.22
2018-06-24T13:42:44.768Z,16.25
2018-06-24T13:45:13.403Z,16.25
2018-06-24T13:47:42.224Z,16.24
2018-06-24T13:50:10.997Z,16.16
2018-06-24T13:52:39.594Z,15.84
2018-06-24T13:55:08.259Z,15.75
2018-06-24T13:57:36.903Z,15.43
2018-06-24T14:00:06.389Z,15.46
2018-06-24T14:02:34.993Z,15.56
2018-06-24T14:05:03.861Z,15.68
2018-06-24T14:07:32.510Z,15.61
2018-06-24T14:10:01.151Z,15.83
2018-06-24T14:12:30.095Z,15.64
2018-06-24T14:14:59.054Z,15.73
2018-06-24T14:17:28.353Z,15.72
2018-06-24T14:19:57.507Z,15.52
2018-06-24T14:22:26.401Z,15.53
2018-06-24T14:24:55.079Z,15.69
2018-06-24T14:27:24.070Z,15.72
2018-06-24T14:29:53.009Z,16.07
2018-06-24T14:32:21.975Z,16.41
2018-06-24T14:34:50.994Z,16.26
2018-06-24T14:37:19.702Z,16.43
2018-06-24T14:39:48.304Z,16.74
2018-06-24T14:42:16.951Z,16.81
2018-06-24T14:44:45.589Z,16.95
2018-06-24T14:47:14.520Z,16.90
2018-06-24T14:49:43.785Z,16.47
2018-06-24T14:52:12.433Z,16.44
2018-06-24T14:54:41.364Z,16.60
2018-06-24T14:57:10.029Z,16.66
2018-06-24T14:59:38.956Z,16.66
2018-06-24T15:02:08.165Z,16.58
2018-06-24T15:04:37.053Z,16.47
2018-06-24T15:07:06.322Z,16.36
2018-06-24T15:09:35.589Z,15.99
2018-06-24T15:12:05.066Z,15.89
2018-06-24T15:14:33.759Z,15.91
2018-06-24T15:17:02.398Z,15.93
2018-06-24T15:19:31.516Z,15.75
2018-06-24T15:22:00.163Z,15.91
2018-06-24T15:24:29.066Z,16.08
2018-06-24T15:26:57.694Z,16.02
2018-06-24T15:29:26.644Z,16.24
2018-06-24T15:31:56.001Z,16.37
2018-06-24T15:34:24.873Z,16.11
2018-06-24T15:36:53.507Z,15.84
2018-06-24T15:39:22.237Z,15.89
2018-06-24T15:41:51.164Z,15.70
2018-06-24T15:44:20.176Z,15.70
2018-06-24T15:46:49.524Z,15.56
2018-06-24T15:49:18.936Z,15.45
2018-06-24T15:51:48.140Z,15.45
2018-06-24T15:54:17.188Z,15.44
2018-06-24T15:56:46.224Z,15.46
2018-06-24T15:59:14.819Z,15.41
2018-06-24T16:01:43.536Z,15.46
2018-06-24T16:04:12.639Z,15.45
2018-06-24T16:06:41.589Z,15.41
2018-06-24T16:09:12.389Z,15.23
2018-06-24T16:11:41.525Z,15.19
2018-06-24T16:14:10.637Z,15.17
2018-06-24T16:16:46.185Z,15.12
2018-06-24T16:19:16.606Z,15.11
2018-06-24T16:21:46.242Z,14.93
2018-06-24T16:24:15.318Z,14.95
2018-06-24T16:26:44.806Z,15.00
2018-06-24T16:29:13.706Z,14.99
2018-06-24T16:31:42.473Z,14.99
2018-06-24T16:34:11.311Z,15.00
2018-06-24T16:36:40.090Z,14.92
2018-06-24T16:39:10.829Z,14.93
2018-06-24T16:41:39.697Z,14.92
2018-06-24T16:44:08.650Z,14.92
2018-06-24T16:46:37.364Z,14.90
2018-06-24T16:49:06.667Z,14.84
2018-06-24T16:51:35.508Z,14.87
2018-06-24T16:54:04.993Z,14.82
2018-06-24T16:56:33.719Z,14.79
2018-06-24T16:59:02.434Z,14.86
2018-06-24T17:01:31.651Z,14.71
2018-06-24T17:04:00.438Z,14.80
2018-06-24T17:06:29.251Z,14.78
2018-06-24T17:08:58.228Z,14.76
2018-06-24T17:11:26.867Z,14.80
2018-06-24T17:13:55.588Z,14.72
2018-06-24T17:16:24.321Z,14.63
2018-06-24T17:18:53.052Z,14.58
2018-06-24T17:21:21.688Z,14.54
2018-06-24T17:23:50.530Z,14.53
2018-06-24T17:26:19.214Z,14.52
2018-06-24T17:28:47.950Z,14.51
2018-06-24T17:31:17.231Z,14.53
2018-06-24T17:33:46.718Z,14.52
2018-06-24T17:36:15.463Z,14.49
2018-06-24T17:38:44.422Z,14.57
2018-06-24T17:41:14.034Z,14.59
2018-06-24T17:43:42.671Z,14.59
2018-06-24T17:46:11.350Z,14.51
2018-06-24T17:48:40.338Z,14.51
2018-06-24T17:51:09.020Z,14.50
2018-06-24T17:53:37.702Z,14.47
2018-06-24T17:56:06.396Z,14.48
2018-06-24T17:58:35.038Z,14.46
2018-06-24T18:01:03.946Z,14.47
2018-06-24T18:03:32.675Z,14.48
2018-06-24T18:06:02.706Z,14.43
2018-06-24T18:08:32.008Z,14.41
2018-06-24T18:11:01.313Z,14.41
2018-06-24T18:13:30.108Z,14.34
2018-06-24T18:15:58.843Z,14.36
2018-06-24T18:18:27.889Z,14.34
2018-06-24T18:20:57.250Z,14.20
2018-06-24T18:23:25.968Z,14.14
2018-06-24T18:25:55.145Z,14.11
2018-06-24T18:28:23.761Z,14.08
2018-06-24T18:30:52.461Z,14.08
2018-06-24T18:33:21.126Z,14.03
2018-06-24T18:35:50.104Z,14.05
2018-06-24T18:38:18.811Z,14.08
2018-06-24T18:40:47.533Z,14.09
2018-06-24T18:43:16.561Z,14.05
2018-06-24T18:45:45.577Z,14.09
2018-06-24T18:48:14.374Z,14.08
2018-06-24T18:50:43.049Z,14.04
2018-06-24T18:53:11.676Z,14.02
2018-06-24T18:55:40.280Z,14.05
2018-06-24T18:58:08.921Z,14.07
2018-06-24T19:00:37.694Z,13.99
2018-06-24T19:03:06.929Z,14.04
2018-06-24T19:05:35.524Z,13.90
2018-06-24T19:08:04.346Z,13.97
2018-06-24T19:10:33.365Z,14.03
2018-06-24T19:13:02.347Z,14.03
2018-06-24T19:15:31.069Z,14.03
2018-06-24T19:17:59.810Z,14.07
2018-06-24T19:20:28.874Z,14.07
2018-06-24T19:22:57.773Z,14.05
2018-06-24T19:25:27.038Z,14.07
2018-06-24T19:27:55.657Z,14.10
2018-06-24T19:30:24.773Z,14.11
2018-06-24T19:32:53.432Z,14.07
2018-06-24T19:35:22.125Z,14.02
2018-06-24T19:37:51.039Z,14.05
2018-06-24T19:40:20.306Z,14.06
2018-06-24T19:42:49.206Z,14.05
2018-06-24T19:45:18.063Z,13.99
2018-06-24T19:47:46.758Z,13.96
2018-06-24T19:50:15.776Z,13.99
2018-06-24T19:52:44.570Z,14.00
2018-06-24T19:55:13.635Z,14.04
2018-06-24T19:57:43.426Z,14.10
2018-06-24T20:00:12.113Z,14.13
2018-06-24T20:02:40.785Z,14.13
2018-06-24T20:05:09.556Z,14.13
2018-06-24T20:07:38.259Z,14.13
2018-06-24T20:10:06.966Z,14.18
2018-06-24T20:12:35.837Z,14.17
2018-06-24T20:15:06.695Z,14.22
2018-06-24T20:17:35.557Z,14.19
2018-06-24T20:20:04.894Z,14.12
2018-06-24T20:22:33.513Z,14.10
2018-06-24T20:25:02.434Z,14.07
2018-06-24T20:27:31.149Z,14.08
2018-06-24T20:29:59.866Z,14.03
2018-06-24T20:32:28.536Z,14.04
2018-06-24T20:34:57.431Z,14.05
2018-06-24T20:37:26.251Z,14.00
2018-06-24T20:39:54.830Z,13.98
2018-06-24T20:42:23.849Z,13.94
2018-06-24T20:44:52.464Z,13.94
2018-06-24T20:47:21.127Z,13.95
2018-06-24T20:49:50.632Z,14.00
2018-06-24T20:52:21.270Z,14.04
2018-06-24T20:54:49.852Z,14.07
2018-06-24T20:57:18.810Z,14.09
2018-06-24T20:59:47.955Z,14.04
2018-06-24T21:02:16.616Z,14.10
2018-06-24T21:04:45.234Z,14.13
2018-06-24T21:07:13.903Z,14.15
2018-06-24T21:09:42.758Z,14.20
2018-06-24T21:12:11.990Z,14.22
2018-06-24T21:14:42.135Z,14.25
2018-06-24T21:17:13.700Z,14.24
2018-06-24T21:19:43.099Z,14.21
2018-06-24T21:22:11.776Z,14.19
2018-06-24T21:24:41.193Z,14.19
2018-06-24T21:27:11.129Z,14.23
2018-06-24T21:29:41.096Z,14.25
2018-06-24T21:32:09.854Z,14.27
2018-06-24T21:34:38.779Z,14.23
2018-06-24T21:37:07.416Z,14.23
2018-06-24T21:39:36.313Z,14.27
2018-06-24T21:42:05.905Z,14.27
2018-06-24T21:44:34.641Z,14.24
2018-06-24T21:47:03.613Z,14.23
2018-06-24T21:49:32.581Z,14.27
2018-06-24T21:52:01.379Z,14.25
2018-06-24T21:54:29.991Z,14.28
2018-06-24T21:56:58.634Z,14.25
2018-06-24T21:59:27.324Z,14.30
2018-06-24T22:01:55.946Z,14.31
2018-06-24T22:04:25.192Z,14.34
2018-06-24T22:06:53.800Z,14.33
2018-06-24T22:09:23.146Z,14.29
2018-06-24T22:11:51.824Z,14.18
2018-06-24T22:14:20.792Z,14.20
2018-06-24T22:16:49.425Z,14.22
2018-06-24T22:19:18.104Z,14.24
2018-06-24T22:21:47.673Z,14.24
2018-06-24T22:24:16.316Z,14.22
2018-06-24T22:26:45.717Z,14.21
2018-06-24T22:29:14.826Z,14.20
2018-06-24T22:31:43.463Z,14.19
2018-06-24T22:34:12.120Z,14.21
2018-06-24T22:36:40.809Z,14.22
2018-06-24T22:39:11.341Z,14.22
2018-06-24T22:41:39.957Z,14.21
2018-06-24T22:44:08.909Z,14.22
2018-06-24T22:46:37.533Z,14.22
2018-06-24T22:49:06.452Z,14.26
2018-06-24T22:51:35.495Z,14.27
2018-06-24T22:54:04.130Z,14.27
2018-06-24T22:56:33.077Z,14.24
2018-06-24T22:59:12.975Z,14.26
2018-06-24T23:01:41.916Z,14.23
2018-06-24T23:04:10.774Z,14.24
2018-06-24T23:06:39.637Z,14.24
2018-06-24T23:09:09.171Z,14.24
2018-06-24T23:11:37.930Z,14.22
2018-06-24T23:14:06.603Z,14.23
2018-06-24T23:16:35.565Z,14.22
2018-06-24T23:19:04.225Z,14.21
2018-06-24T23:21:33.355Z,14.21
2018-06-24T23:24:01.958Z,14.20
2018-06-24T23:26:30.791Z,14.21
2018-06-24T23:29:00.113Z,14.18
2018-06-24T23:31:28.942Z,14.18
2018-06-24T23:33:57.541Z,14.17
2018-06-24T23:36:26.100Z,14.19
2018-06-24T23:38:55.030Z,14.19
2018-06-24T23:41:23.894Z,14.19
2018-06-24T23:43:52.529Z,14.21
2018-06-24T23:46:21.419Z,14.23
2018-06-24T23:48:50.049Z,14.24
2018-06-24T23:51:18.613Z,14.24
2018-06-24T23:53:47.890Z,14.25
2018-06-24T23:56:16.463Z,14.26
2018-06-24T23:58:45.144Z,14.27
